<?xml version="1.0" encoding="UTF-8" standalone="no" ?>
<gpx xmlns="http://www.topografix.com/GPX/1/1" xmlns:xsi="http://www.w3.org/2001/XMLSchema-instance" xsi:schemaLocation="http://www.topografix.com/GPX/1/1 http://www.topografix.com/GPX/1/1/gpx.xsd" version="1.1" creator="VisuGPX - https://www.visugpx.com">
  <metadata>
    <name>Vacances 2021</name>
  </metadata>
  <trk>
    <name><![CDATA[Journal actif: 2021-07-25 10:30]]></name>
    <trkseg>
      <trkpt lat="49.2112" lon="5.29805">
        <ele>198.65</ele>
        <time>2021-07-25T12:30:52Z</time>
      </trkpt>
      <trkpt lat="49.21119" lon="5.29799">
        <ele>194.8</ele>
        <time>2021-07-25T12:31:28Z</time>
      </trkpt>
      <trkpt lat="49.21117" lon="5.29822">
        <ele>194.32</ele>
        <time>2021-07-25T12:31:37Z</time>
      </trkpt>
      <trkpt lat="49.21105" lon="5.29866">
        <ele>194.32</ele>
        <time>2021-07-25T12:31:56Z</time>
      </trkpt>
      <trkpt lat="49.21106" lon="5.29865">
        <ele>193.84</ele>
        <time>2021-07-25T12:34:03Z</time>
      </trkpt>
      <trkpt lat="49.21102" lon="5.29899">
        <ele>193.84</ele>
        <time>2021-07-25T12:35:49Z</time>
      </trkpt>
      <trkpt lat="49.21115" lon="5.29952">
        <ele>194.32</ele>
        <time>2021-07-25T12:36:06Z</time>
      </trkpt>
      <trkpt lat="49.21123" lon="5.29956">
        <ele>193.84</ele>
        <time>2021-07-25T12:36:21Z</time>
      </trkpt>
      <trkpt lat="49.21124" lon="5.29956">
        <ele>193.84</ele>
        <time>2021-07-25T12:38:02Z</time>
      </trkpt>
      <trkpt lat="49.21126" lon="5.29954">
        <ele>193.36</ele>
        <time>2021-07-25T12:38:16Z</time>
      </trkpt>
      <trkpt lat="49.21125" lon="5.29955">
        <ele>193.36</ele>
        <time>2021-07-25T12:38:41Z</time>
      </trkpt>
      <trkpt lat="49.21124" lon="5.29956">
        <ele>193.84</ele>
        <time>2021-07-25T12:39:17Z</time>
      </trkpt>
      <trkpt lat="49.21124" lon="5.29957">
        <ele>193.36</ele>
        <time>2021-07-25T12:42:04Z</time>
      </trkpt>
      <trkpt lat="49.21131" lon="5.29955">
        <ele>193.36</ele>
        <time>2021-07-25T12:43:27Z</time>
      </trkpt>
      <trkpt lat="49.21137" lon="5.29955">
        <ele>192.88</ele>
        <time>2021-07-25T12:43:43Z</time>
      </trkpt>
      <trkpt lat="49.21153" lon="5.29952">
        <ele>192.4</ele>
        <time>2021-07-25T12:43:53Z</time>
      </trkpt>
      <trkpt lat="49.21181" lon="5.29964">
        <ele>190.48</ele>
        <time>2021-07-25T12:44:08Z</time>
      </trkpt>
      <trkpt lat="49.21183" lon="5.29962">
        <ele>190</ele>
        <time>2021-07-25T12:44:11Z</time>
      </trkpt>
      <trkpt lat="49.21184" lon="5.29959">
        <ele>190</ele>
        <time>2021-07-25T12:44:12Z</time>
      </trkpt>
      <trkpt lat="49.21184" lon="5.29955">
        <ele>190</ele>
        <time>2021-07-25T12:44:13Z</time>
      </trkpt>
      <trkpt lat="49.21185" lon="5.2995">
        <ele>190</ele>
        <time>2021-07-25T12:44:14Z</time>
      </trkpt>
      <trkpt lat="49.21186" lon="5.29944">
        <ele>190</ele>
        <time>2021-07-25T12:44:15Z</time>
      </trkpt>
      <trkpt lat="49.21207" lon="5.29846">
        <ele>189.04</ele>
        <time>2021-07-25T12:44:25Z</time>
      </trkpt>
      <trkpt lat="49.21244" lon="5.29681">
        <ele>190</ele>
        <time>2021-07-25T12:44:37Z</time>
      </trkpt>
      <trkpt lat="49.21286" lon="5.29434">
        <ele>187.11</ele>
        <time>2021-07-25T12:44:52Z</time>
      </trkpt>
      <trkpt lat="49.21356" lon="5.29177">
        <ele>189.52</ele>
        <time>2021-07-25T12:45:06Z</time>
      </trkpt>
      <trkpt lat="49.21364" lon="5.29164">
        <ele>189.04</ele>
        <time>2021-07-25T12:45:07Z</time>
      </trkpt>
      <trkpt lat="49.2138" lon="5.29139">
        <ele>188.56</ele>
        <time>2021-07-25T12:45:08Z</time>
      </trkpt>
      <trkpt lat="49.21389" lon="5.29125">
        <ele>188.08</ele>
        <time>2021-07-25T12:45:09Z</time>
      </trkpt>
      <trkpt lat="49.21389" lon="5.29125">
        <ele>188.08</ele>
        <time>2021-07-25T12:45:10Z</time>
      </trkpt>
      <trkpt lat="49.21554" lon="5.28933">
        <ele>188.08</ele>
        <time>2021-07-25T12:45:25Z</time>
      </trkpt>
      <trkpt lat="49.21685" lon="5.28752">
        <ele>189.52</ele>
        <time>2021-07-25T12:45:39Z</time>
      </trkpt>
      <trkpt lat="49.21817" lon="5.28567">
        <ele>189.04</ele>
        <time>2021-07-25T12:45:52Z</time>
      </trkpt>
      <trkpt lat="49.21926" lon="5.28415">
        <ele>190.48</ele>
        <time>2021-07-25T12:46:03Z</time>
      </trkpt>
      <trkpt lat="49.22025" lon="5.28282">
        <ele>188.56</ele>
        <time>2021-07-25T12:46:14Z</time>
      </trkpt>
      <trkpt lat="49.22082" lon="5.28228">
        <ele>191.44</ele>
        <time>2021-07-25T12:46:24Z</time>
      </trkpt>
      <trkpt lat="49.22094" lon="5.28207">
        <ele>191.92</ele>
        <time>2021-07-25T12:46:33Z</time>
      </trkpt>
      <trkpt lat="49.22092" lon="5.28199">
        <ele>191.92</ele>
        <time>2021-07-25T12:46:36Z</time>
      </trkpt>
      <trkpt lat="49.22091" lon="5.28193">
        <ele>191.92</ele>
        <time>2021-07-25T12:46:37Z</time>
      </trkpt>
      <trkpt lat="49.2209" lon="5.28187">
        <ele>191.92</ele>
        <time>2021-07-25T12:46:38Z</time>
      </trkpt>
      <trkpt lat="49.22086" lon="5.28175">
        <ele>191.44</ele>
        <time>2021-07-25T12:46:40Z</time>
      </trkpt>
      <trkpt lat="49.22061" lon="5.28088">
        <ele>191.44</ele>
        <time>2021-07-25T12:46:53Z</time>
      </trkpt>
      <trkpt lat="49.2203" lon="5.27983">
        <ele>192.4</ele>
        <time>2021-07-25T12:47:05Z</time>
      </trkpt>
      <trkpt lat="49.21976" lon="5.27799">
        <ele>193.84</ele>
        <time>2021-07-25T12:47:19Z</time>
      </trkpt>
      <trkpt lat="49.21912" lon="5.27589">
        <ele>194.32</ele>
        <time>2021-07-25T12:47:32Z</time>
      </trkpt>
      <trkpt lat="49.21844" lon="5.27364">
        <ele>194.8</ele>
        <time>2021-07-25T12:47:46Z</time>
      </trkpt>
      <trkpt lat="49.21796" lon="5.27181">
        <ele>199.13</ele>
        <time>2021-07-25T12:47:59Z</time>
      </trkpt>
      <trkpt lat="49.21795" lon="5.27117">
        <ele>200.09</ele>
        <time>2021-07-25T12:48:06Z</time>
      </trkpt>
      <trkpt lat="49.21797" lon="5.27107">
        <ele>200.09</ele>
        <time>2021-07-25T12:48:07Z</time>
      </trkpt>
      <trkpt lat="49.218" lon="5.27097">
        <ele>200.09</ele>
        <time>2021-07-25T12:48:08Z</time>
      </trkpt>
      <trkpt lat="49.21805" lon="5.27077">
        <ele>200.09</ele>
        <time>2021-07-25T12:48:09Z</time>
      </trkpt>
      <trkpt lat="49.21805" lon="5.27077">
        <ele>200.09</ele>
        <time>2021-07-25T12:48:10Z</time>
      </trkpt>
      <trkpt lat="49.21811" lon="5.27059">
        <ele>200.09</ele>
        <time>2021-07-25T12:48:11Z</time>
      </trkpt>
      <trkpt lat="49.21826" lon="5.27022">
        <ele>199.61</ele>
        <time>2021-07-25T12:48:20Z</time>
      </trkpt>
      <trkpt lat="49.21827" lon="5.27008">
        <ele>199.61</ele>
        <time>2021-07-25T12:48:30Z</time>
      </trkpt>
      <trkpt lat="49.21813" lon="5.26898">
        <ele>200.57</ele>
        <time>2021-07-25T12:48:42Z</time>
      </trkpt>
      <trkpt lat="49.21773" lon="5.26752">
        <ele>201.53</ele>
        <time>2021-07-25T12:48:55Z</time>
      </trkpt>
      <trkpt lat="49.21772" lon="5.26638">
        <ele>202.49</ele>
        <time>2021-07-25T12:49:06Z</time>
      </trkpt>
      <trkpt lat="49.21774" lon="5.26628">
        <ele>202.01</ele>
        <time>2021-07-25T12:49:15Z</time>
      </trkpt>
      <trkpt lat="49.21774" lon="5.26626">
        <ele>202.01</ele>
        <time>2021-07-25T12:49:16Z</time>
      </trkpt>
      <trkpt lat="49.21774" lon="5.26623">
        <ele>202.01</ele>
        <time>2021-07-25T12:49:17Z</time>
      </trkpt>
      <trkpt lat="49.21775" lon="5.2662">
        <ele>202.01</ele>
        <time>2021-07-25T12:49:18Z</time>
      </trkpt>
      <trkpt lat="49.21775" lon="5.26619">
        <ele>202.49</ele>
        <time>2021-07-25T12:49:19Z</time>
      </trkpt>
      <trkpt lat="49.21775" lon="5.26618">
        <ele>202.49</ele>
        <time>2021-07-25T12:49:36Z</time>
      </trkpt>
      <trkpt lat="49.21775" lon="5.26618">
        <ele>202.98</ele>
        <time>2021-07-25T12:52:58Z</time>
      </trkpt>
      <trkpt lat="49.21775" lon="5.26618">
        <ele>202.98</ele>
        <time>2021-07-25T12:58:41Z</time>
      </trkpt>
      <trkpt lat="49.21775" lon="5.26618">
        <ele>203.46</ele>
        <time>2021-07-25T13:02:37Z</time>
      </trkpt>
      <trkpt lat="49.21775" lon="5.26618">
        <ele>202.98</ele>
        <time>2021-07-25T13:06:52Z</time>
      </trkpt>
      <trkpt lat="49.21775" lon="5.26618">
        <ele>202.98</ele>
        <time>2021-07-25T13:18:21Z</time>
      </trkpt>
      <trkpt lat="49.21775" lon="5.26618">
        <ele>202.49</ele>
        <time>2021-07-25T13:21:53Z</time>
      </trkpt>
      <trkpt lat="49.21775" lon="5.26618">
        <ele>202.49</ele>
        <time>2021-07-25T13:28:21Z</time>
      </trkpt>
      <trkpt lat="49.21775" lon="5.26618">
        <ele>202.49</ele>
        <time>2021-07-25T13:32:35Z</time>
      </trkpt>
    </trkseg>
  </trk>
</gpx>